Weather

Frazier Lake Airpark (1C9) NOTAMS
Aviation Weather
HOLLISTER MUNI, CA
Metar
KCVH 150735Z AUTO 00000KT 5SM HZ CLR 05/M07 A3023 RMK A01

07:35 UTC

Wind: 0° 0kt

Visibility: 5 SM

Sky:

Temp: 5 deg C / 41 deg F

Dewpoint: -7 deg C / 19.4 deg F

Pressure: 30.23 inHg

Available data for KSJC from the past 2 hours
SAN JOSE, CA
Metar
KSJC 150653Z 17003KT 3SM HZ FEW001 SCT010 BKN019 09/M01 A3023 RMK AO2 SLP236 FU FEW001 FU SCT010 FU BKN019 T00941011

06:53 UTC

Wind: 170° 3kt

Visibility: 3 SM

Sky: FEW 100 ft

Temp: 9 deg C / 48.2 deg F

Dewpoint: -1 deg C / 30.2 deg F

Pressure: 30.23 inHg

TAF
KSJC 150523Z 1506/1606 VRB03KT 3SM FU HZ FEW010 SCT020 FM152000 32006KT 4SM FU HZ FEW010 SCT020
 

  • Latitude: -121.4626 Longitude: 36.9528 Elevation: 154

  • Extended Forecast Summary for Frazier Lake Airpark

  • Frazier Lake Airpark